Time;durP1;ratioP1;P1;durP2;ratioP2;P2;SDS_P1;SDS_P2;PMS_P1;PMS_P2;Temp;Humidity;BMP_temperature;BMP_pressure;BME280_temperature;BME280_humidity;BME280_pressure;Samples;Min_cycle;Max_cycle;Signal;HPM_P1;HPM_P2
2021/03/20 00:01:59;;;;;;;21.93;19.03;;;-1.10;99.90;;;;;;5046323;28;20457;-79
2021/03/20 00:04:26;;;;;;;21.30;19.03;;;-1.20;99.90;;;;;;5044772;28;20474;-80
2021/03/20 00:06:54;;;;;;;21.87;19.40;;;-1.20;99.90;;;;;;5044619;28;20449;-80
2021/03/20 00:09:24;;;;;;;22.20;19.90;;;-1.20;99.90;;;;;;5044324;28;20461;-80
2021/03/20 00:11:51;;;;;;;22.23;19.83;;;-1.20;99.90;;;;;;5044576;28;20523;-80
2021/03/20 00:14:20;;;;;;;24.27;20.83;;;-1.20;99.90;;;;;;5042714;28;20442;-79
2021/03/20 00:16:48;;;;;;;22.70;20.33;;;-1.30;99.90;;;;;;5044376;28;20458;-80
2021/03/20 00:19:15;;;;;;;22.07;19.73;;;-1.30;99.90;;;;;;5043244;28;20829;-79
2021/03/20 00:21:42;;;;;;;23.83;21.03;;;-1.30;99.90;;;;;;5046031;28;20450;-80
2021/03/20 00:24:08;;;;;;;22.67;20.23;;;-1.30;99.90;;;;;;5044056;28;20458;-80
2021/03/20 00:26:36;;;;;;;22.70;20.30;;;-1.30;99.90;;;;;;5036241;28;20446;-80
2021/03/20 00:29:02;;;;;;;22.43;20.20;;;-1.30;99.90;;;;;;5046351;28;21194;-79
2021/03/20 00:31:29;;;;;;;20.97;19.07;;;-1.30;99.90;;;;;;5067527;22;20461;-78
2021/03/20 00:33:56;;;;;;;24.80;20.37;;;-1.40;99.90;;;;;;5034286;28;20448;-77
2021/03/20 00:36:23;;;;;;;22.47;20.17;;;-1.40;99.90;;;;;;5049304;28;20446;-77
2021/03/20 00:38:49;;;;;;;22.10;19.83;;;-1.40;99.90;;;;;;5026240;28;20975;-78
2021/03/20 00:41:16;;;;;;;22.53;20.13;;;-1.50;99.90;;;;;;5055864;28;20450;-77
2021/03/20 00:43:42;;;;;;;22.73;20.40;;;-1.50;99.90;;;;;;5012214;28;20476;-77
2021/03/20 00:46:10;;;;;;;22.70;20.40;;;-1.60;99.90;;;;;;5015569;28;20439;-77
2021/03/20 00:48:39;;;;;;;22.17;19.93;;;-1.60;99.90;;;;;;5021404;28;20441;-77
2021/03/20 00:51:07;;;;;;;23.50;20.67;;;-1.70;99.90;;;;;;5018711;28;20515;-76
2021/03/20 00:53:33;;;;;;;26.63;22.53;;;-1.70;99.90;;;;;;5016859;28;20473;-77
2021/03/20 00:56:00;;;;;;;23.97;21.37;;;-1.70;99.90;;;;;;5009771;28;20470;-77
2021/03/20 00:58:29;;;;;;;24.37;21.73;;;-1.70;99.90;;;;;;5020273;28;20923;-77
2021/03/20 01:00:58;;;;;;;23.13;20.83;;;-1.70;99.90;;;;;;5040580;28;20964;-78
2021/03/20 01:03:24;;;;;;;23.37;20.27;;;-1.70;99.90;;;;;;5019273;28;20473;-77
2021/03/20 01:05:50;;;;;;;22.83;20.43;;;-1.80;99.90;;;;;;5013586;28;20471;-77
2021/03/20 01:08:18;;;;;;;21.33;19.23;;;-1.80;99.90;;;;;;5020538;28;20447;-78
2021/03/20 01:10:45;;;;;;;22.00;19.23;;;-1.90;99.90;;;;;;5011339;28;20504;-77
2021/03/20 01:13:12;;;;;;;24.10;21.33;;;-1.90;99.90;;;;;;5015828;28;20527;-78
2021/03/20 01:15:38;;;;;;;23.07;20.67;;;-1.90;99.90;;;;;;5019195;28;20443;-78
2021/03/20 01:18:05;;;;;;;27.17;21.23;;;-1.90;99.90;;;;;;5014436;28;20837;-77
2021/03/20 01:20:32;;;;;;;25.07;21.87;;;-1.90;99.90;;;;;;5018954;28;20862;-78
2021/03/20 01:22:58;;;;;;;24.87;21.23;;;-1.90;99.90;;;;;;5013705;28;20530;-78
2021/03/20 01:25:26;;;;;;;23.43;21.13;;;-1.80;99.90;;;;;;5017588;28;20811;-77
2021/03/20 01:27:53;;;;;;;25.43;22.07;;;-1.90;99.90;;;;;;5010671;28;20992;-78
2021/03/20 01:30:23;;;;;;;23.20;20.70;;;-1.90;99.90;;;;;;5019825;28;20470;-79
2021/03/20 01:32:50;;;;;;;22.73;20.33;;;-1.90;99.90;;;;;;5026635;28;20510;-78
2021/03/20 01:35:16;;;;;;;22.40;19.97;;;-1.90;99.90;;;;;;5017261;28;20448;-77
2021/03/20 01:37:43;;;;;;;22.87;20.23;;;-2.00;99.90;;;;;;5012116;28;20868;-76
2021/03/20 01:40:11;;;;;;;22.10;19.63;;;-2.00;99.90;;;;;;5019722;28;20450;-78
2021/03/20 01:42:42;;;;;;;27.33;22.57;;;-2.10;99.90;;;;;;5022751;28;20461;-78
2021/03/20 01:45:15;;;;;;;24.47;21.93;;;-2.00;99.90;;;;;;5018315;28;20485;-77
2021/03/20 01:47:49;;;;;;;23.43;21.00;;;-2.00;99.90;;;;;;5021871;28;20442;-78
2021/03/20 01:50:22;;;;;;;26.13;21.17;;;-2.00;99.90;;;;;;5029988;28;20456;-77
2021/03/20 01:52:54;;;;;;;24.67;22.07;;;-1.90;99.90;;;;;;5039111;28;20477;-78
2021/03/20 01:55:22;;;;;;;23.80;21.30;;;-1.90;99.90;;;;;;5021714;28;20451;-78
2021/03/20 01:57:51;;;;;;;24.27;21.67;;;-1.90;99.90;;;;;;5020815;28;20435;-76
2021/03/20 02:00:23;;;;;;;25.43;22.73;;;-1.80;99.90;;;;;;5025871;28;20581;-77
2021/03/20 02:02:49;;;;;;;28.50;22.87;;;-1.60;99.90;;;;;;5020379;28;20534;-77
2021/03/20 02:05:20;;;;;;;25.00;21.60;;;-1.60;99.90;;;;;;5017671;28;20627;-77
2021/03/20 02:07:46;;;;;;;26.03;21.40;;;-1.50;99.90;;;;;;5044841;28;20446;-77
2021/03/20 02:10:14;;;;;;;22.87;20.50;;;-1.60;99.90;;;;;;5019232;28;20848;-77
2021/03/20 02:12:44;;;;;;;22.80;20.60;;;-1.60;99.90;;;;;;5015535;28;20475;-77
2021/03/20 02:15:19;;;;;;;26.17;21.67;;;-1.60;99.90;;;;;;5020589;28;20444;-76
2021/03/20 02:17:51;;;;;;;25.50;21.20;;;-1.60;99.90;;;;;;5016679;28;20521;-76
2021/03/20 02:20:29;;;;;;;24.33;21.60;;;-1.60;99.90;;;;;;5022242;28;20505;-77
2021/03/20 02:23:31;;;;;;;24.50;21.90;;;-1.60;99.90;;;;;;5023719;28;20477;-76
2021/03/20 02:26:17;;;;;;;25.67;22.37;;;-1.60;99.90;;;;;;5006159;28;20449;-77
2021/03/20 02:29:13;;;;;;;29.87;21.73;;;-1.60;99.90;;;;;;5017166;28;20440;-76
2021/03/20 02:31:53;;;;;;;24.27;21.57;;;-1.60;99.90;;;;;;5015469;28;20487;-77
2021/03/20 02:34:28;;;;;;;27.10;21.23;;;-1.70;99.90;;;;;;5019855;28;20427;-76
2021/03/20 02:37:01;;;;;;;29.13;22.47;;;-1.70;99.90;;;;;;5023985;28;20438;-76
2021/03/20 02:39:35;;;;;;;27.03;22.13;;;-1.80;99.90;;;;;;5020327;28;20442;-77
2021/03/20 02:42:09;;;;;;;44.63;27.07;;;-1.80;99.90;;;;;;5019203;28;20459;-77
2021/03/20 02:44:42;;;;;;;37.03;24.93;;;-1.80;99.90;;;;;;5032365;28;21019;-78
2021/03/20 02:47:11;;;;;;;31.60;22.73;;;-1.90;99.90;;;;;;5023536;28;20455;-77
2021/03/20 02:49:44;;;;;;;36.23;26.10;;;-1.90;99.90;;;;;;5018837;28;20444;-77
2021/03/20 02:52:15;;;;;;;37.40;26.00;;;-1.90;99.90;;;;;;5014877;28;20846;-77
2021/03/20 02:54:47;;;;;;;39.73;25.87;;;-1.90;99.90;;;;;;5018736;28;20443;-77
2021/03/20 02:57:18;;;;;;;42.37;26.67;;;-1.90;99.90;;;;;;5020750;28;20500;-77
2021/03/20 02:59:50;;;;;;;38.27;26.93;;;-1.90;99.90;;;;;;5016662;28;20811;-77
2021/03/20 03:02:18;;;;;;;43.83;27.67;;;-1.90;99.90;;;;;;5017039;28;20994;-77
2021/03/20 03:04:50;;;;;;;42.97;26.53;;;-1.90;99.90;;;;;;5020671;28;20479;-77
2021/03/20 03:07:21;;;;;;;43.17;26.23;;;-1.80;99.90;;;;;;5022484;28;20440;-78
2021/03/20 03:09:52;;;;;;;35.80;26.73;;;-1.80;99.90;;;;;;5040642;28;20454;-77
2021/03/20 03:12:23;;;;;;;36.57;25.47;;;-1.80;99.90;;;;;;5018921;28;20461;-78
2021/03/20 03:14:55;;;;;;;30.80;23.53;;;-1.70;99.90;;;;;;5037065;28;20452;-78
2021/03/20 03:17:24;;;;;;;28.87;22.50;;;-1.60;99.90;;;;;;5014503;28;20819;-76
2021/03/20 03:19:55;;;;;;;33.30;22.60;;;-1.60;99.90;;;;;;5017004;28;20447;-77
2021/03/20 03:22:27;;;;;;;27.13;22.37;;;-1.60;99.90;;;;;;5016838;28;20877;-79
2021/03/20 03:24:57;;;;;;;25.70;22.60;;;-1.50;99.90;;;;;;5014913;28;20480;-76
2021/03/20 03:27:26;;;;;;;28.67;21.80;;;-1.50;99.90;;;;;;5014742;28;20495;-78
2021/03/20 03:29:53;;;;;;;30.27;22.60;;;-1.30;99.90;;;;;;5016644;28;20463;-76
2021/03/20 03:32:25;;;;;;;27.97;22.00;;;-1.30;99.90;;;;;;5014124;28;20470;-77
2021/03/20 03:34:57;;;;;;;24.57;21.03;;;-1.30;99.90;;;;;;5013593;28;20956;-77
2021/03/20 03:37:33;;;;;;;23.33;20.07;;;-1.30;99.90;;;;;;5021545;28;20463;-77
2021/03/20 03:40:05;;;;;;;22.23;19.93;;;-1.20;99.90;;;;;;5018587;28;20621;-77
2021/03/20 03:42:32;;;;;;;22.23;19.97;;;-1.20;99.90;;;;;;5019126;28;20979;-77
2021/03/20 03:44:58;;;;;;;23.43;20.30;;;-1.10;99.90;;;;;;5013072;28;20479;-77
2021/03/20 03:47:26;;;;;;;25.47;21.33;;;-1.00;99.90;;;;;;5021965;28;20469;-80
2021/03/20 03:49:55;;;;;;;21.27;19.13;;;-1.00;99.90;;;;;;5019218;28;20534;-80
2021/03/20 03:52:22;;;;;;;22.33;20.00;;;-1.00;99.90;;;;;;5016188;28;20464;-79
2021/03/20 03:54:49;;;;;;;21.27;19.07;;;-1.00;99.90;;;;;;5015009;28;20971;-80
2021/03/20 03:57:41;;;;;;;21.57;19.37;;;-1.00;99.90;;;;;;5010708;28;21360;-79
2021/03/20 04:00:13;;;;;;;20.13;18.13;;;-0.90;99.90;;;;;;5013348;28;20452;-79
2021/03/20 04:03:09;;;;;;;20.33;18.37;;;-0.90;99.90;;;;;;5024999;28;20506;-79
2021/03/20 04:05:46;;;;;;;21.67;19.27;;;-0.90;99.90;;;;;;5035380;28;20459;-82
2021/03/20 04:08:23;;;;;;;20.53;18.53;;;-0.80;99.90;;;;;;5006472;28;20463;-76
2021/03/20 04:10:56;;;;;;;22.13;19.83;;;-0.80;99.90;;;;;;5025636;28;20994;-77
2021/03/20 04:13:28;;;;;;;22.03;19.67;;;-0.70;99.90;;;;;;5011455;28;20489;-77
2021/03/20 04:16:05;;;;;;;20.70;18.57;;;-0.60;99.90;;;;;;5011154;28;20506;-77
2021/03/20 04:18:40;;;;;;;21.73;18.83;;;-0.60;99.90;;;;;;5006989;28;20477;-77
2021/03/20 04:21:26;;;;;;;22.10;19.60;;;-0.50;99.90;;;;;;5009200;28;20453;-76
2021/03/20 04:24:06;;;;;;;21.33;19.03;;;-0.40;99.90;;;;;;5004203;28;20979;-76
2021/03/20 04:26:40;;;;;;;19.80;18.00;;;-0.40;99.90;;;;;;5009891;28;20439;-77
2021/03/20 04:29:14;;;;;;;20.80;18.70;;;-0.40;99.90;;;;;;5008028;28;20487;-77
2021/03/20 04:31:45;;;;;;;24.00;19.20;;;-0.40;99.90;;;;;;5009060;28;20471;-77
2021/03/20 04:34:18;;;;;;;21.63;19.33;;;-0.40;99.90;;;;;;5023983;28;20452;-77
2021/03/20 04:36:50;;;;;;;21.60;19.50;;;-0.30;99.90;;;;;;5012605;28;20444;-77
2021/03/20 04:39:21;;;;;;;20.47;18.50;;;-0.30;99.90;;;;;;5017992;28;20446;-77
2021/03/20 04:41:51;;;;;;;21.67;19.37;;;-0.30;99.90;;;;;;5011094;28;20462;-77
2021/03/20 04:44:18;;;;;;;21.83;19.70;;;-0.40;99.90;;;;;;5010037;28;20472;-77
2021/03/20 04:46:45;;;;;;;21.83;19.47;;;-0.40;99.90;;;;;;5005940;28;21037;-76
2021/03/20 04:49:32;;;;;;;21.03;18.93;;;-0.30;99.90;;;;;;5007466;28;21625;-77
2021/03/20 04:52:07;;;;;;;21.13;18.87;;;-0.30;99.90;;;;;;5009345;28;20479;-77
2021/03/20 04:54:34;;;;;;;22.03;19.73;;;-0.40;99.90;;;;;;5025066;28;20450;-77
2021/03/20 04:57:15;;;;;;;21.67;19.43;;;-0.50;99.90;;;;;;5011604;28;20444;-77
2021/03/20 04:59:48;;;;;;;22.63;20.10;;;-0.50;99.90;;;;;;5011513;28;20475;-77
2021/03/20 05:02:22;;;;;;;21.80;19.50;;;-0.40;99.90;;;;;;5007738;28;21009;-77
2021/03/20 05:04:55;;;;;;;22.20;19.87;;;-0.40;99.90;;;;;;5012738;28;20479;-77
2021/03/20 05:07:26;;;;;;;21.57;19.37;;;-0.50;99.90;;;;;;5011675;28;20472;-77
2021/03/20 05:09:58;;;;;;;24.80;20.13;;;-0.50;99.90;;;;;;5012460;28;20455;-77
2021/03/20 05:12:30;;;;;;;21.10;19.00;;;-0.50;99.90;;;;;;5010054;28;20462;-75
2021/03/20 05:15:05;;;;;;;21.53;19.07;;;-0.50;99.90;;;;;;5008636;28;20956;-77
2021/03/20 05:17:32;;;;;;;21.13;19.03;;;-0.50;99.90;;;;;;5009342;28;20956;-77
2021/03/20 05:19:59;;;;;;;22.07;19.97;;;-0.50;99.90;;;;;;5009960;28;20447;-76
2021/03/20 05:22:29;;;;;;;24.40;21.60;;;-0.50;99.90;;;;;;5012429;28;20570;-77
2021/03/20 05:24:58;;;;;;;22.83;20.20;;;-0.50;99.90;;;;;;5004692;28;20511;-76
2021/03/20 05:27:27;;;;;;;22.87;20.47;;;-0.40;99.90;;;;;;5020699;28;20506;-74
2021/03/20 05:29:53;;;;;;;21.27;19.17;;;-0.50;99.90;;;;;;5019515;28;20466;-74
2021/03/20 05:32:25;;;;;;;21.70;19.57;;;-0.50;99.90;;;;;;5016263;28;21050;-74
2021/03/20 05:34:53;;;;;;;24.50;21.87;;;-0.50;99.90;;;;;;5014558;28;20448;-77
2021/03/20 05:37:23;;;;;;;23.23;20.97;;;-0.50;99.90;;;;;;5019449;28;20540;-77
2021/03/20 05:39:51;;;;;;;23.10;21.00;;;-0.50;99.90;;;;;;5022737;28;20452;-78
2021/03/20 05:42:37;;;;;;;23.47;21.00;;;-0.60;99.90;;;;;;5014678;28;20478;-77
2021/03/20 05:45:16;;;;;;;22.47;20.13;;;-0.60;99.90;;;;;;5019767;28;20475;-78
2021/03/20 05:48:03;;;;;;;24.50;21.53;;;-0.50;99.90;;;;;;5027398;28;20824;-76
2021/03/20 05:51:03;;;;;;;27.20;21.03;;;-0.50;99.90;;;;;;5019591;28;20939;-78
2021/03/20 05:53:48;;;;;;;23.07;20.63;;;-0.50;99.90;;;;;;5025038;28;20978;-77
2021/03/20 05:56:21;;;;;;;22.00;19.97;;;-0.50;99.90;;;;;;5020557;28;20458;-77
2021/03/20 05:59:04;;;;;;;23.27;20.83;;;-0.50;99.90;;;;;;5028557;28;20451;-77
2021/03/20 06:01:41;;;;;;;21.80;19.57;;;-0.50;99.90;;;;;;5001630;28;20456;-75
2021/03/20 06:04:30;;;;;;;23.47;21.07;;;-0.50;99.90;;;;;;5014520;28;20478;-77
2021/03/20 06:07:41;;;;;;;23.40;20.97;;;-0.40;99.90;;;;;;5024083;28;20451;-77
2021/03/20 06:10:33;;;;;;;26.17;20.93;;;-0.40;99.90;;;;;;5015794;28;20447;-81
2021/03/20 06:13:23;;;;;;;23.73;21.13;;;-0.40;99.90;;;;;;5022966;28;20467;-82
2021/03/20 06:15:59;;;;;;;22.80;20.37;;;-0.30;99.90;;;;;;4973194;28;20447;-79
2021/03/20 06:18:47;;;;;;;21.60;19.57;;;-0.20;99.90;;;;;;5023396;28;20523;-80
2021/03/20 06:21:20;;;;;;;22.13;20.00;;;-0.10;99.90;;;;;;5036204;28;21011;-82
2021/03/20 06:24:16;;;;;;;21.73;19.43;;;-0.10;99.90;;;;;;5022425;28;20479;-79
2021/03/20 06:26:44;;;;;;;21.97;19.00;;;0.00;99.90;;;;;;4993461;28;20950;-80
2021/03/20 06:29:16;;;;;;;21.50;19.20;;;0.10;99.90;;;;;;5035387;28;20455;-80
2021/03/20 06:34:16;;;;;;;22.13;19.97;;;0.20;99.90;;;;;;5030375;28;20454;-76
2021/03/20 06:36:47;;;;;;;20.80;18.80;;;0.20;99.90;;;;;;5031942;28;20857;-77
2021/03/20 06:39:18;;;;;;;19.83;17.97;;;0.40;99.90;;;;;;5034625;28;20430;-77
2021/03/20 06:41:49;;;;;;;21.33;19.13;;;0.50;99.90;;;;;;5035252;28;20438;-77
2021/03/20 06:44:32;;;;;;;20.40;18.53;;;0.60;99.90;;;;;;5016374;28;20472;-79
2021/03/20 06:46:59;;;;;;;20.87;18.83;;;0.70;99.90;;;;;;5013154;28;20432;-81
2021/03/20 06:49:29;;;;;;;20.07;17.97;;;0.70;99.90;;;;;;5020290;28;20460;-79
2021/03/20 06:51:56;;;;;;;18.70;16.20;;;0.70;99.90;;;;;;5020221;28;20446;-81
2021/03/20 06:54:24;;;;;;;18.97;17.27;;;0.80;99.90;;;;;;4999309;28;20463;-77
2021/03/20 06:56:51;;;;;;;19.90;17.90;;;0.70;99.90;;;;;;5013125;28;20452;-77
2021/03/20 06:59:20;;;;;;;20.07;18.17;;;0.80;99.90;;;;;;5015016;28;20441;-77
2021/03/20 07:01:56;;;;;;;18.57;16.87;;;0.80;99.90;;;;;;4997316;28;20498;-78
2021/03/20 07:04:46;;;;;;;19.70;17.60;;;0.90;99.90;;;;;;5015087;28;20857;-78
2021/03/20 07:07:47;;;;;;;18.80;17.03;;;0.90;99.90;;;;;;5014615;28;20440;-78
2021/03/20 07:10:25;;;;;;;17.70;16.17;;;1.10;99.90;;;;;;5012281;28;20449;-77
2021/03/20 07:13:11;;;;;;;18.50;16.90;;;1.20;99.90;;;;;;5012566;28;20480;-78
2021/03/20 07:15:38;;;;;;;17.93;16.23;;;1.50;99.90;;;;;;5016579;28;20448;-78
2021/03/20 07:18:36;;;;;;;18.30;16.53;;;1.80;99.90;;;;;;5013843;28;20459;-78
2021/03/20 07:21:18;;;;;;;13.93;12.67;;;2.20;99.90;;;;;;5010975;28;20841;-77
2021/03/20 07:23:52;;;;;;;15.17;13.87;;;2.30;99.90;;;;;;5011417;28;20460;-78
2021/03/20 07:26:19;;;;;;;14.47;13.27;;;2.30;99.90;;;;;;4996763;28;20464;-78
2021/03/20 07:28:50;;;;;;;15.30;14.10;;;2.40;99.90;;;;;;5015289;28;20482;-78
2021/03/20 07:31:17;;;;;;;12.97;11.97;;;2.40;99.90;;;;;;4998025;28;20455;-80
2021/03/20 07:33:47;;;;;;;13.10;12.10;;;2.50;99.90;;;;;;4997567;28;20856;-78
2021/03/20 07:36:30;;;;;;;7.20;5.63;;;2.40;99.90;;;;;;5015487;28;20435;-77
2021/03/20 07:39:14;;;;;;;10.83;9.80;;;2.60;99.90;;;;;;4992361;28;20457;-78
2021/03/20 07:41:54;;;;;;;6.97;6.37;;;2.70;99.90;;;;;;5001437;28;20442;-78
2021/03/20 07:44:21;;;;;;;11.97;11.07;;;2.90;99.90;;;;;;5002188;28;20839;-77
2021/03/20 07:46:48;;;;;;;12.07;11.27;;;2.70;99.90;;;;;;5001467;28;20442;-78
2021/03/20 07:49:22;;;;;;;11.90;11.10;;;2.70;99.90;;;;;;4999516;28;21082;-79
2021/03/20 07:51:50;;;;;;;12.03;11.23;;;2.40;99.90;;;;;;4996647;28;20457;-78
2021/03/20 07:54:22;;;;;;;11.73;10.80;;;2.60;99.90;;;;;;4998479;28;20439;-77
2021/03/20 07:56:49;;;;;;;11.90;10.93;;;2.60;99.90;;;;;;4996450;28;20968;-77
2021/03/20 07:59:24;;;;;;;11.97;11.17;;;2.70;99.90;;;;;;4999417;28;21000;-79
2021/03/20 08:01:54;;;;;;;11.83;10.80;;;2.20;99.90;;;;;;5013325;28;20454;-77
2021/03/20 08:04:50;;;;;;;11.43;10.50;;;2.10;99.90;;;;;;5008731;28;20487;-77
2021/03/20 08:07:38;;;;;;;11.63;10.63;;;2.40;99.90;;;;;;5012663;28;20866;-79
2021/03/20 08:10:24;;;;;;;11.87;10.97;;;3.00;99.90;;;;;;5012911;28;20492;-78
2021/03/20 08:12:52;;;;;;;12.30;11.40;;;3.40;99.90;;;;;;5006014;28;20475;-80
2021/03/20 08:15:23;;;;;;;12.40;11.60;;;3.20;99.90;;;;;;5012577;28;20463;-78
2021/03/20 08:17:49;;;;;;;12.83;11.77;;;3.50;99.90;;;;;;5012282;28;20832;-79
2021/03/20 08:20:18;;;;;;;11.37;10.57;;;3.50;99.90;;;;;;5012468;28;20445;-78
2021/03/20 08:23:16;;;;;;;9.03;6.47;;;4.20;99.90;;;;;;4996700;28;20475;-79
2021/03/20 08:25:58;;;;;;;6.77;6.17;;;4.60;99.90;;;;;;4990053;28;20484;-80
2021/03/20 08:28:46;;;;;;;10.50;9.67;;;4.00;99.90;;;;;;5012077;28;20451;-79
2021/03/20 08:31:26;;;;;;;7.53;6.83;;;4.10;99.90;;;;;;4997205;28;20440;-79
2021/03/20 08:34:10;;;;;;;9.93;9.13;;;4.40;99.90;;;;;;5020131;28;20463;-78
2021/03/20 08:36:58;;;;;;;6.40;5.80;;;4.40;99.90;;;;;;5012715;28;20451;-79
2021/03/20 08:39:43;;;;;;;8.47;7.77;;;4.30;99.90;;;;;;5012004;28;20565;-79
2021/03/20 08:42:20;;;;;;;10.80;10.00;;;4.90;99.90;;;;;;5013005;28;20905;-78
2021/03/20 08:45:00;;;;;;;4.80;4.27;;;5.00;99.90;;;;;;5003319;28;20481;-78
2021/03/20 08:47:49;;;;;;;4.37;3.97;;;5.10;99.90;;;;;;5011396;28;20196;-77
2021/03/20 08:50:24;;;;;;;4.10;3.70;;;5.00;99.90;;;;;;5026494;28;20258;-79
2021/03/20 08:53:01;;;;;;;4.50;4.00;;;4.80;99.90;;;;;;5027152;28;20728;-78
2021/03/20 08:55:47;;;;;;;4.23;3.83;;;4.50;99.90;;;;;;5013209;28;20673;-79
2021/03/20 08:58:31;;;;;;;4.03;3.73;;;4.50;99.90;;;;;;5016514;28;20451;-78
2021/03/20 09:01:01;;;;;;;4.60;4.00;;;4.80;99.90;;;;;;5013930;28;20197;-78
2021/03/20 09:03:32;;;;;;;5.87;3.77;;;4.90;99.90;;;;;;4995848;28;20243;-79
2021/03/20 09:06:02;;;;;;;4.53;3.90;;;4.70;99.90;;;;;;4995221;28;20224;-79
2021/03/20 09:08:31;;;;;;;4.80;4.30;;;5.10;99.90;;;;;;5012342;28;20201;-79
2021/03/20 09:11:02;;;;;;;5.00;4.03;;;5.50;99.90;;;;;;5013534;28;20196;-79
2021/03/20 09:13:35;;;;;;;4.33;3.80;;;5.10;99.90;;;;;;5015173;28;20228;-79
2021/03/20 09:16:07;;;;;;;5.33;4.23;;;4.80;99.90;;;;;;5012788;28;20649;-79
2021/03/20 09:18:34;;;;;;;4.60;4.10;;;4.20;99.90;;;;;;5008897;28;20674;-79
2021/03/20 09:21:05;;;;;;;4.33;3.80;;;4.00;99.90;;;;;;4995392;28;20196;-79
2021/03/20 09:23:36;;;;;;;5.77;4.50;;;3.90;99.90;;;;;;5008335;28;20474;-78
2021/03/20 09:26:05;;;;;;;5.43;4.00;;;3.70;99.90;;;;;;5008811;28;20220;-78
2021/03/20 09:29:05;;;;;;;5.70;4.47;;;3.40;99.90;;;;;;4994086;28;20463;-79
2021/03/20 09:31:55;;;;;;;5.63;4.40;;;3.30;99.90;;;;;;5009552;28;20451;-80
2021/03/20 09:34:38;;;;;;;4.83;4.00;;;3.00;99.90;;;;;;4983775;28;20481;-77
2021/03/20 09:37:07;;;;;;;5.50;5.03;;;3.00;99.90;;;;;;5019855;28;20585;-77
2021/03/20 09:39:42;;;;;;;5.37;4.63;;;3.10;99.90;;;;;;5006359;28;20451;-79
2021/03/20 09:42:31;;;;;;;3.93;3.63;;;3.20;99.90;;;;;;5007375;28;20471;-77
2021/03/20 09:45:00;;;;;;;4.40;4.00;;;3.20;99.90;;;;;;5024014;28;20475;-78
2021/03/20 09:47:48;;;;;;;7.37;6.60;;;3.60;99.90;;;;;;5010331;28;20478;-79
2021/03/20 09:50:34;;;;;;;4.13;3.70;;;4.60;99.90;;;;;;5009801;28;20471;-77
2021/03/20 09:53:33;;;;;;;4.83;3.87;;;5.20;99.90;;;;;;5010429;28;20466;-77
2021/03/20 09:56:26;;;;;;;5.23;4.70;;;5.50;99.90;;;;;;5011726;28;20435;-78
2021/03/20 09:58:53;;;;;;;4.60;4.17;;;5.40;99.90;;;;;;5011780;28;20525;-81
2021/03/20 10:01:21;;;;;;;3.90;3.60;;;5.20;99.90;;;;;;5017034;28;20449;-78
2021/03/20 10:03:54;;;;;;;3.60;3.30;;;4.90;99.90;;;;;;5014189;28;20490;-78
2021/03/20 10:06:30;;;;;;;6.83;3.93;;;4.70;99.90;;;;;;5015849;28;20843;-78
2021/03/20 10:09:22;;;;;;;5.40;3.93;;;4.50;99.90;;;;;;5017373;28;20454;-78
2021/03/20 10:12:22;;;;;;;4.10;3.70;;;4.10;99.90;;;;;;5014103;28;20518;-77
2021/03/20 10:15:15;;;;;;;4.57;3.97;;;4.10;99.90;;;;;;5010848;28;20952;-78
2021/03/20 10:17:59;;;;;;;4.17;3.77;;;4.30;99.90;;;;;;5013885;28;20517;-77
2021/03/20 10:20:37;;;;;;;4.33;3.50;;;4.40;99.90;;;;;;5015233;28;20969;-78
2021/03/20 10:23:12;;;;;;;3.77;3.20;;;4.60;99.90;;;;;;5015571;28;20470;-78
2021/03/20 10:25:43;;;;;;;5.27;3.47;;;4.90;99.90;;;;;;5013835;28;20556;-78
2021/03/20 10:28:11;;;;;;;5.57;3.70;;;4.90;99.90;;;;;;4997626;28;20974;-77
2021/03/20 10:30:38;;;;;;;4.47;3.57;;;4.40;99.90;;;;;;4997264;28;20461;-77
2021/03/20 10:33:07;;;;;;;4.77;3.87;;;4.40;99.90;;;;;;5014663;28;20467;-77
2021/03/20 10:35:35;;;;;;;4.90;3.70;;;4.30;99.90;;;;;;5012420;28;20423;-77
2021/03/20 10:38:15;;;;;;;3.60;3.30;;;4.10;99.90;;;;;;5015131;28;20439;-77
2021/03/20 10:40:41;;;;;;;4.70;3.60;;;4.00;99.90;;;;;;5005909;28;21014;-78
2021/03/20 10:43:14;;;;;;;3.43;3.10;;;3.90;99.90;;;;;;5014546;28;20998;-77
2021/03/20 10:45:44;;;;;;;3.27;2.97;;;3.90;99.90;;;;;;5010028;28;20864;-77
2021/03/20 10:48:16;;;;;;;3.93;3.60;;;4.10;99.90;;;;;;5013800;28;20513;-77
2021/03/20 10:50:44;;;;;;;5.77;3.63;;;4.20;99.90;;;;;;5014263;28;20490;-77
2021/03/20 10:53:18;;;;;;;4.20;3.43;;;4.40;99.90;;;;;;5014021;28;20525;-77
2021/03/20 10:55:47;;;;;;;4.20;3.80;;;4.60;99.90;;;;;;5014527;28;20441;-80
2021/03/20 10:58:22;;;;;;;4.40;3.37;;;4.50;99.90;;;;;;5014586;28;20578;-77
2021/03/20 11:00:50;;;;;;;4.53;3.27;;;4.50;99.90;;;;;;5014693;28;20431;-78
2021/03/20 11:03:28;;;;;;;4.20;3.30;;;4.50;99.90;;;;;;5010542;28;21009;-77
2021/03/20 11:05:55;;;;;;;3.77;3.30;;;4.40;99.90;;;;;;4996701;28;20625;-77
2021/03/20 11:08:27;;;;;;;3.33;3.03;;;4.30;99.90;;;;;;5013918;28;20442;-79
2021/03/20 11:11:08;;;;;;;8.73;3.50;;;4.50;99.90;;;;;;4993029;28;20666;-77
2021/03/20 11:13:39;;;;;;;3.17;2.90;;;4.50;99.90;;;;;;5013274;28;20808;-77
2021/03/20 11:16:12;;;;;;;5.33;3.30;;;4.50;99.90;;;;;;5013320;28;20451;-77
2021/03/20 11:18:43;;;;;;;3.60;3.27;;;4.20;99.90;;;;;;4990846;28;20208;-77
2021/03/20 11:21:24;;;;;;;3.27;3.00;;;4.20;99.90;;;;;;5014064;28;20207;-77
2021/03/20 11:23:57;;;;;;;3.80;3.00;;;4.30;99.90;;;;;;4996764;28;21064;-82
2021/03/20 11:26:34;;;;;;;3.77;3.30;;;4.20;99.90;;;;;;4996330;28;20972;-77
2021/03/20 11:29:04;;;;;;;8.67;7.97;;;4.00;99.90;;;;;;5014398;28;20443;-77
2021/03/20 11:31:39;;;;;;;9.33;8.60;;;3.80;99.90;;;;;;5014288;28;20429;-77
2021/03/20 11:34:06;;;;;;;9.00;8.30;;;3.90;99.90;;;;;;5013926;28;20566;-77
2021/03/20 11:36:34;;;;;;;8.70;8.00;;;4.10;99.90;;;;;;5013956;28;20844;-77
2021/03/20 11:39:05;;;;;;;8.83;8.23;;;4.20;99.90;;;;;;5013784;28;20462;-77
2021/03/20 11:41:36;;;;;;;8.40;7.70;;;4.40;99.90;;;;;;5013734;28;20462;-77
2021/03/20 11:44:06;;;;;;;8.10;7.53;;;4.50;99.90;;;;;;4997067;28;20567;-78
2021/03/20 11:46:36;;;;;;;8.50;7.90;;;4.50;99.90;;;;;;5013582;28;20442;-77
2021/03/20 11:49:05;;;;;;;8.77;8.17;;;4.60;99.90;;;;;;5013383;28;20884;-77
2021/03/20 11:51:36;;;;;;;8.87;8.20;;;4.60;99.90;;;;;;5014009;28;20455;-74
2021/03/20 11:54:06;;;;;;;8.93;8.33;;;4.70;99.90;;;;;;5019141;28;20467;-77
2021/03/20 11:56:38;;;;;;;11.03;8.53;;;4.70;99.90;;;;;;5014563;28;20433;-76
2021/03/20 11:59:30;;;;;;;8.10;7.60;;;4.80;99.90;;;;;;5018173;28;20470;-78
2021/03/20 12:01:57;;;;;;;7.90;7.40;;;4.80;99.90;;;;;;5010072;28;20833;-79
2021/03/20 12:04:25;;;;;;;8.70;8.10;;;4.60;99.90;;;;;;4994605;28;20475;-78
2021/03/20 12:06:53;;;;;;;8.40;7.90;;;4.60;99.90;;;;;;4993122;28;20509;-78
2021/03/20 12:09:34;;;;;;;8.80;8.10;;;4.70;99.90;;;;;;5008631;28;20455;-77
2021/03/20 12:12:00;;;;;;;8.60;8.10;;;4.50;99.90;;;;;;4994127;28;20458;-77
2021/03/20 12:14:38;;;;;;;8.70;8.10;;;4.40;99.90;;;;;;5011118;28;20459;-77
2021/03/20 12:17:17;;;;;;;9.30;8.70;;;4.40;99.90;;;;;;4994682;28;20455;-77
2021/03/20 12:20:00;;;;;;;8.70;8.10;;;4.50;99.90;;;;;;5012786;28;20436;-76
2021/03/20 12:22:42;;;;;;;8.57;7.90;;;4.40;99.90;;;;;;5011796;28;20456;-76
2021/03/20 12:25:27;;;;;;;9.00;8.30;;;4.50;99.90;;;;;;5010516;28;20987;-76
2021/03/20 12:28:15;;;;;;;9.30;8.60;;;4.40;99.90;;;;;;5012603;28;20463;-76
2021/03/20 12:30:42;;;;;;;11.13;10.30;;;4.40;99.90;;;;;;5006240;28;20200;-76
2021/03/20 12:33:18;;;;;;;9.77;9.17;;;4.40;99.90;;;;;;4994701;28;20483;-77
2021/03/20 12:35:46;;;;;;;11.10;10.40;;;4.30;99.90;;;;;;4995271;28;20455;-77
2021/03/20 12:38:20;;;;;;;5.33;4.53;;;4.10;99.30;;;;;;5034746;22;20900;-78
2021/03/20 12:40:54;;;;;;;9.40;8.80;;;4.20;99.90;;;;;;5052098;28;20495;-78
2021/03/20 12:43:29;;;;;;;10.03;9.43;;;4.00;99.90;;;;;;5030837;28;20992;-78
2021/03/20 12:46:00;;;;;;;9.03;8.43;;;4.00;99.90;;;;;;5052988;28;20475;-77
2021/03/20 12:48:28;;;;;;;8.77;8.17;;;4.10;99.90;;;;;;5035208;28;20530;-78
2021/03/20 12:51:00;;;;;;;9.10;8.40;;;4.20;99.90;;;;;;5044646;28;20968;-78
2021/03/20 12:53:27;;;;;;;8.63;8.03;;;4.10;98.90;;;;;;5047102;28;20451;-77
2021/03/20 12:55:54;;;;;;;7.20;6.70;;;4.10;99.90;;;;;;5053660;28;20449;-77
2021/03/20 12:58:21;;;;;;;9.50;8.90;;;4.20;99.20;;;;;;5044171;28;20460;-77
2021/03/20 13:00:48;;;;;;;8.73;8.03;;;4.10;99.00;;;;;;5052160;28;20466;-78
2021/03/20 13:03:16;;;;;;;8.77;8.17;;;4.00;99.20;;;;;;5046714;28;20515;-77
2021/03/20 13:05:43;;;;;;;8.30;7.70;;;4.00;99.90;;;;;;5053693;28;20950;-78
2021/03/20 13:08:11;;;;;;;8.73;8.13;;;4.10;99.90;;;;;;5046820;28;20525;-77
2021/03/20 13:10:38;;;;;;;9.03;8.23;;;4.20;99.90;;;;;;5054371;28;20487;-78
2021/03/20 13:13:05;;;;;;;9.20;8.33;;;4.20;99.50;;;;;;5055765;28;20545;-78
2021/03/20 13:15:32;;;;;;;8.30;7.80;;;4.30;99.90;;;;;;5049786;28;20453;-78